Time;durP1;ratioP1;P1;durP2;ratioP2;P2;SDS_P1;SDS_P2;PMS_P1;PMS_P2;Temp;Humidity;BMP_temperature;BMP_pressure;BME280_temperature;BME280_humidity;BME280_pressure;Samples;Min_cycle;Max_cycle;Signal;HPM_P1;HPM_P2
2021/01/26 00:01:00;;;;;;;19.40;12.52;;;;;;;;;;6335927;22;20003;-79
2021/01/26 00:03:26;;;;;;;17.58;12.13;;;;;;;;;;6339394;22;20098;-77
2021/01/26 00:05:53;;;;;;;17.90;12.30;;;;;;;;;;6338689;22;20002;-78
2021/01/26 00:08:20;;;;;;;16.85;11.50;;;;;;;;;;6367024;22;20016;-79
2021/01/26 00:10:46;;;;;;;19.33;11.65;;;;;;;;;;6368459;22;20001;-80
2021/01/26 00:13:13;;;;;;;18.85;12.10;;;;;;;;;;6340653;22;20055;-79
2021/01/26 00:15:40;;;;;;;16.63;11.67;;;;;;;;;;6368169;22;19998;-79
2021/01/26 00:18:06;;;;;;;17.90;11.00;;;;;;;;;;6339737;22;20002;-79
2021/01/26 00:20:32;;;;;;;18.92;12.48;;;;;;;;;;6339441;22;20059;-80
2021/01/26 00:22:58;;;;;;;25.33;14.07;;;;;;;;;;6367985;22;20002;-79
2021/01/26 00:25:36;;;;;;;19.75;12.90;;;;;;;;;;6338982;22;20093;-79
2021/01/26 00:28:03;;;;;;;18.48;11.52;;;;;;;;;;6340319;22;20086;-79
2021/01/26 00:30:31;;;;;;;18.40;11.45;;;;;;;;;;6367517;22;19998;-78
2021/01/26 00:33:00;;;;;;;17.02;10.73;;;;;;;;;;6339355;22;20011;-79
2021/01/26 00:35:28;;;;;;;17.52;10.15;;;;;;;;;;6367264;22;20029;-80
2021/01/26 00:37:55;;;;;;;15.32;9.52;;;;;;;;;;6373667;22;20048;-79
2021/01/26 00:40:21;;;;;;;13.23;7.53;;;;;;;;;;6344181;22;20013;-77
2021/01/26 00:42:47;;;;;;;11.55;7.25;;;;;;;;;;6343760;22;20037;-80
2021/01/26 00:45:13;;;;;;;10.98;7.38;;;;;;;;;;6337969;22;20498;-80
2021/01/26 00:47:39;;;;;;;12.45;7.68;;;;;;;;;;6338817;22;20335;-79
2021/01/26 00:50:06;;;;;;;11.07;7.40;;;;;;;;;;6338827;22;20052;-80
2021/01/26 00:52:32;;;;;;;12.40;7.32;;;;;;;;;;6338775;22;20000;-79
2021/01/26 00:54:58;;;;;;;12.45;7.82;;;;;;;;;;6338396;22;20002;-81
2021/01/26 00:57:24;;;;;;;12.25;7.97;;;;;;;;;;6338720;22;20002;-78
2021/01/26 00:59:50;;;;;;;14.77;8.80;;;;;;;;;;6338000;22;20091;-78
2021/01/26 01:02:17;;;;;;;13.90;8.48;;;;;;;;;;6338271;22;20014;-78
2021/01/26 01:04:43;;;;;;;10.80;7.55;;;;;;;;;;6337922;22;20007;-79
2021/01/26 01:07:10;;;;;;;13.05;8.88;;;;;;;;;;6338162;22;20094;-79
2021/01/26 01:09:36;;;;;;;14.82;7.95;;;;;;;;;;6337995;22;19994;-79
2021/01/26 01:12:02;;;;;;;13.02;8.30;;;;;;;;;;6338064;22;20019;-78
2021/01/26 01:14:28;;;;;;;14.38;8.55;;;;;;;;;;6336638;22;20535;-78
2021/01/26 01:16:55;;;;;;;14.00;8.80;;;;;;;;;;6336567;22;20026;-80
2021/01/26 01:19:21;;;;;;;14.85;8.57;;;;;;;;;;6336493;22;20038;-79
2021/01/26 01:21:47;;;;;;;12.85;9.13;;;;;;;;;;6336466;22;20064;-80
2021/01/26 01:24:13;;;;;;;14.50;9.40;;;;;;;;;;6337050;22;20022;-80
2021/01/26 01:26:39;;;;;;;13.73;8.20;;;;;;;;;;6336796;22;20637;-79
2021/01/26 01:29:05;;;;;;;15.50;8.48;;;;;;;;;;6337505;22;19998;-80
2021/01/26 01:31:32;;;;;;;15.90;8.82;;;;;;;;;;6336889;22;20448;-79
2021/01/26 01:33:58;;;;;;;14.38;8.60;;;;;;;;;;6337198;22;20449;-79
2021/01/26 01:36:24;;;;;;;15.02;8.55;;;;;;;;;;6336888;22;20010;-79
2021/01/26 01:38:50;;;;;;;13.88;9.05;;;;;;;;;;6337352;22;20013;-78
2021/01/26 01:41:16;;;;;;;15.35;8.68;;;;;;;;;;6337673;22;20088;-79
2021/01/26 01:43:42;;;;;;;14.73;8.75;;;;;;;;;;6337248;22;20060;-79
2021/01/26 01:46:13;;;;;;;14.00;8.88;;;;;;;;;;6338509;22;20013;-79
2021/01/26 01:48:39;;;;;;;16.20;8.85;;;;;;;;;;6337013;22;20059;-79
2021/01/26 01:51:09;;;;;;;17.55;9.27;;;;;;;;;;6337260;22;20059;-79
2021/01/26 01:53:39;;;;;;;14.63;9.23;;;;;;;;;;6337165;22;19990;-79
2021/01/26 01:56:07;;;;;;;16.33;8.90;;;;;;;;;;6337227;22;20037;-80
2021/01/26 01:58:36;;;;;;;15.98;9.52;;;;;;;;;;6337823;22;20268;-79
2021/01/26 02:01:10;;;;;;;21.73;11.85;;;;;;;;;;6337604;22;20093;-80
2021/01/26 02:03:38;;;;;;;17.45;10.30;;;;;;;;;;6337641;22;20011;-79
2021/01/26 02:06:04;;;;;;;16.58;9.82;;;;;;;;;;6337250;22;20315;-79
2021/01/26 02:08:36;;;;;;;16.02;9.85;;;;;;;;;;6337439;22;20006;-79
2021/01/26 02:11:02;;;;;;;17.23;9.65;;;;;;;;;;6338814;22;20002;-77
2021/01/26 02:13:28;;;;;;;17.30;9.98;;;;;;;;;;6339418;22;20327;-77
2021/01/26 02:15:57;;;;;;;15.18;8.95;;;;;;;;;;6367262;22;20009;-78
2021/01/26 02:18:27;;;;;;;14.60;9.40;;;;;;;;;;6340128;22;20074;-79
2021/01/26 02:21:12;;;;;;;16.10;9.07;;;;;;;;;;6339197;22;20009;-78
2021/01/26 02:23:38;;;;;;;14.52;8.43;;;;;;;;;;6339338;22;20013;-78
2021/01/26 02:26:13;;;;;;;16.40;9.30;;;;;;;;;;6338383;22;20515;-78
2021/01/26 02:28:42;;;;;;;14.63;8.93;;;;;;;;;;6338987;22;20043;-77
2021/01/26 02:31:17;;;;;;;13.82;9.00;;;;;;;;;;6366597;22;20018;-78
2021/01/26 02:33:49;;;;;;;16.27;9.55;;;;;;;;;;6339387;22;20002;-79
2021/01/26 02:36:24;;;;;;;15.73;8.38;;;;;;;;;;6338557;22;20006;-79
2021/01/26 02:39:02;;;;;;;16.52;9.02;;;;;;;;;;6338937;22;20334;-79
2021/01/26 02:41:29;;;;;;;19.75;9.40;;;;;;;;;;6339407;22;20052;-79
2021/01/26 02:44:07;;;;;;;17.08;9.35;;;;;;;;;;6339419;22;20395;-79
2021/01/26 02:46:55;;;;;;;14.00;8.52;;;;;;;;;;6339182;22;20006;-77
2021/01/26 02:49:24;;;;;;;16.23;8.60;;;;;;;;;;6339612;22;20004;-77
2021/01/26 02:51:53;;;;;;;14.57;8.73;;;;;;;;;;6339342;22;20018;-79
2021/01/26 02:54:42;;;;;;;16.05;8.63;;;;;;;;;;6339889;22;20005;-79
2021/01/26 02:57:10;;;;;;;14.05;8.98;;;;;;;;;;6318445;22;20125;-79
2021/01/26 02:59:49;;;;;;;13.07;8.68;;;;;;;;;;6367241;22;19998;-78
2021/01/26 03:02:15;;;;;;;15.18;9.30;;;;;;;;;;6340803;22;20070;-78
2021/01/26 03:05:07;;;;;;;14.70;9.18;;;;;;;;;;6370061;22;20051;-79
2021/01/26 03:07:36;;;;;;;16.70;9.40;;;;;;;;;;6334684;22;20532;-79
2021/01/26 03:10:05;;;;;;;15.00;8.90;;;;;;;;;;6341796;22;20044;-79
2021/01/26 03:12:34;;;;;;;16.25;8.98;;;;;;;;;;6340798;22;20002;-79
2021/01/26 03:15:21;;;;;;;16.15;9.50;;;;;;;;;;6340463;22;20434;-79
2021/01/26 03:17:47;;;;;;;16.25;10.23;;;;;;;;;;6340762;22;20377;-79
2021/01/26 03:20:22;;;;;;;16.92;9.63;;;;;;;;;;6340530;22;20002;-80
2021/01/26 03:22:51;;;;;;;15.63;9.77;;;;;;;;;;6340281;22;20385;-78
2021/01/26 03:25:18;;;;;;;15.98;8.90;;;;;;;;;;6340251;22;20089;-78
2021/01/26 03:27:45;;;;;;;15.57;9.57;;;;;;;;;;6340462;22;20006;-78
2021/01/26 03:30:13;;;;;;;16.47;9.07;;;;;;;;;;6368481;22;19994;-79
2021/01/26 03:32:42;;;;;;;14.43;8.75;;;;;;;;;;6340373;22;20273;-79
2021/01/26 03:35:08;;;;;;;15.35;9.40;;;;;;;;;;6340213;22;20085;-78
2021/01/26 03:37:35;;;;;;;14.93;9.60;;;;;;;;;;6340378;22;20006;-79
2021/01/26 03:40:01;;;;;;;15.35;9.40;;;;;;;;;;6340169;22;20036;-78
2021/01/26 03:42:29;;;;;;;14.05;9.20;;;;;;;;;;6340595;22;20002;-79
2021/01/26 03:44:55;;;;;;;13.45;8.30;;;;;;;;;;6339864;22;20458;-79
2021/01/26 03:47:29;;;;;;;14.85;8.25;;;;;;;;;;6340679;22;20052;-78
2021/01/26 03:49:55;;;;;;;13.30;7.82;;;;;;;;;;6368643;22;20005;-79
2021/01/26 03:52:24;;;;;;;14.77;7.95;;;;;;;;;;6369254;22;19994;-79
2021/01/26 03:55:04;;;;;;;15.38;8.68;;;;;;;;;;6341321;22;19994;-78
2021/01/26 03:57:49;;;;;;;16.65;9.07;;;;;;;;;;6341959;22;20008;-77
2021/01/26 04:00:18;;;;;;;16.98;9.65;;;;;;;;;;6341233;22;20081;-78
2021/01/26 04:02:44;;;;;;;17.67;10.27;;;;;;;;;;6340338;22;20020;-79
2021/01/26 04:05:17;;;;;;;16.83;9.90;;;;;;;;;;6339688;22;20030;-79
2021/01/26 04:07:45;;;;;;;17.48;9.15;;;;;;;;;;6340249;22;20044;-79
2021/01/26 04:10:11;;;;;;;;;;;;;;;;;;6341412;22;20005;-79
2021/01/26 04:12:38;;;;;;;16.17;9.80;;;;;;;;;;6342264;22;19898;-80
2021/01/26 04:15:10;;;;;;;18.05;10.73;;;;;;;;;;6374390;22;19998;-79
2021/01/26 04:17:39;;;;;;;20.15;11.18;;;;;;;;;;6346357;22;20033;-79
2021/01/26 04:20:20;;;;;;;17.25;10.27;;;;;;;;;;6343280;22;20296;-78
2021/01/26 04:22:52;;;;;;;17.60;10.50;;;;;;;;;;6365675;22;20006;-78
2021/01/26 04:25:24;;;;;;;24.38;10.48;;;;;;;;;;6337678;22;20013;-79
2021/01/26 04:27:50;;;;;;;14.93;9.73;;;;;;;;;;6338334;22;19998;-78
2021/01/26 04:30:16;;;;;;;16.20;10.00;;;;;;;;;;6365979;22;20005;-79
2021/01/26 04:32:42;;;;;;;15.30;8.65;;;;;;;;;;6338209;22;20006;-79
2021/01/26 04:35:09;;;;;;;15.88;9.60;;;;;;;;;;6337526;22;19999;-79
2021/01/26 04:37:34;;;;;;;15.05;9.32;;;;;;;;;;6338125;22;20410;-79
2021/01/26 04:40:01;;;;;;;17.48;9.13;;;;;;;;;;6337835;22;20002;-79
2021/01/26 04:42:28;;;;;;;19.53;10.00;;;;;;;;;;6337757;22;19998;-77
2021/01/26 04:45:13;;;;;;;19.38;8.98;;;;;;;;;;6337928;22;20232;-78
2021/01/26 04:47:53;;;;;;;15.30;8.30;;;;;;;;;;6365959;22;20067;-77
2021/01/26 04:50:41;;;;;;;16.70;8.50;;;;;;;;;;6337813;22;20025;-79
2021/01/26 04:53:13;;;;;;;14.00;7.78;;;;;;;;;;6366144;22;19998;-79
2021/01/26 04:55:39;;;;;;;13.10;7.30;;;;;;;;;;6338205;22;20010;-78
2021/01/26 04:58:08;;;;;;;13.27;7.53;;;;;;;;;;6337969;22;19994;-78
2021/01/26 05:00:59;;;;;;;14.85;6.63;;;;;;;;;;6338474;22;20067;-79
2021/01/26 05:03:34;;;;;;;16.58;8.45;;;;;;;;;;6338358;22;20002;-79
2021/01/26 05:06:09;;;;;;;15.18;8.52;;;;;;;;;;5105494;27;20339;-83
2021/01/26 05:08:37;;;;;;;18.30;8.48;;;;;;;;;;5104191;28;20023;-82
2021/01/26 05:11:03;;;;;;;16.05;8.85;;;;;;;;;;5104479;28;20069;-83
2021/01/26 05:13:38;;;;;;;14.52;8.73;;;;;;;;;;5106621;28;20416;-82
2021/01/26 05:16:16;;;;;;;15.45;8.13;;;;;;;;;;5104666;28;20019;-81
2021/01/26 05:18:42;;;;;;;;;;;;;;;;;;5105347;28;20031;-80
2021/01/26 05:21:10;;;;;;;15.68;7.90;;;;;;;;;;5104843;28;19904;-80
2021/01/26 05:23:38;;;;;;;12.85;7.30;;;;;;;;;;5104902;28;20059;-82
2021/01/26 05:26:09;;;;;;;13.88;7.72;;;;;;;;;;5094044;28;20099;-81
2021/01/26 05:28:35;;;;;;;14.93;7.78;;;;;;;;;;5086309;28;20111;-82
2021/01/26 05:31:07;;;;;;;13.80;8.77;;;;;;;;;;5084796;28;20028;-81
2021/01/26 05:33:34;;;;;;;16.05;8.77;;;;;;;;;;5086821;28;20471;-82
2021/01/26 05:36:02;;;;;;;16.08;7.70;;;;;;;;;;5084970;28;20435;-81
2021/01/26 05:38:28;;;;;;;13.63;6.97;;;;;;;;;;5084514;28;20021;-82
2021/01/26 05:41:02;;;;;;;14.05;7.18;;;;;;;;;;5084451;28;20077;-80
2021/01/26 05:43:30;;;;;;;13.80;8.05;;;;;;;;;;5083165;28;20027;-81
2021/01/26 05:45:57;;;;;;;14.25;7.30;;;;;;;;;;5084430;28;20025;-81
2021/01/26 05:48:23;;;;;;;;;;;;;;;;;;5084273;28;20657;-79
2021/01/26 05:50:50;;;;;;;13.70;6.82;;;;;;;;;;5084364;28;20123;-79
2021/01/26 05:53:31;;;;;;;11.63;6.55;;;;;;;;;;5100118;28;20027;-82
2021/01/26 05:56:12;;;;;;;10.05;6.22;;;;;;;;;;5100006;28;20039;-82
2021/01/26 05:58:39;;;;;;;11.82;6.70;;;;;;;;;;5096440;28;20020;-81
2021/01/26 06:01:08;;;;;;;14.27;6.40;;;;;;;;;;5083686;28;20028;-79
2021/01/26 06:03:34;;;;;;;11.80;6.15;;;;;;;;;;5084241;28;20024;-81
2021/01/26 06:06:07;;;;;;;10.77;6.00;;;;;;;;;;5083559;28;20110;-81
2021/01/26 06:08:35;;;;;;;10.73;5.82;;;;;;;;;;5085616;28;20032;-82
2021/01/26 06:11:14;;;;;;;9.18;5.80;;;;;;;;;;5084062;28;20497;-81
2021/01/26 06:13:40;;;;;;;10.63;6.13;;;;;;;;;;5082732;28;20028;-80
2021/01/26 06:16:08;;;;;;;10.18;6.45;;;;;;;;;;5078331;28;20021;-81
2021/01/26 06:18:34;;;;;;;12.90;7.05;;;;;;;;;;5069321;28;20414;-78
2021/01/26 06:21:08;;;;;;;13.00;6.28;;;;;;;;;;5070529;28;20602;-78
2021/01/26 06:23:34;;;;;;;11.35;6.18;;;;;;;;;;5088927;28;20022;-81
2021/01/26 06:26:02;;;;;;;10.27;5.47;;;;;;;;;;5089479;28;20071;-82
2021/01/26 06:28:37;;;;;;;9.13;4.97;;;;;;;;;;5092343;28;20028;-81
2021/01/26 06:31:09;;;;;;;8.93;4.38;;;;;;;;;;5089263;28;20036;-81
2021/01/26 06:33:44;;;;;;;9.88;5.00;;;;;;;;;;5071763;28;20025;-80
2021/01/26 06:36:18;;;;;;;10.77;4.53;;;;;;;;;;5070056;28;20032;-81
2021/01/26 06:38:47;;;;;;;10.90;4.57;;;;;;;;;;5070764;28;20046;-81
2021/01/26 06:41:16;;;;;;;9.98;4.85;;;;;;;;;;5071741;28;20035;-82
2021/01/26 06:43:48;;;;;;;11.07;5.05;;;;;;;;;;5068820;28;20572;-81
2021/01/26 06:46:33;;;;;;;11.35;4.75;;;;;;;;;;5068524;28;20317;-80
2021/01/26 06:49:02;;;;;;;7.68;4.40;;;;;;;;;;5080957;28;20028;-83
2021/01/26 06:51:28;;;;;;;7.10;4.13;;;;;;;;;;5088948;28;20444;-82
2021/01/26 06:54:09;;;;;;;8.27;4.68;;;;;;;;;;5088993;28;20028;-80
2021/01/26 06:56:41;;;;;;;8.45;5.03;;;;;;;;;;5090176;28;20027;-81
2021/01/26 06:59:07;;;;;;;9.30;5.30;;;;;;;;;;5091050;28;20028;-80
2021/01/26 07:01:52;;;;;;;9.70;4.93;;;;;;;;;;5091313;28;20025;-81
2021/01/26 07:04:18;;;;;;;13.25;4.85;;;;;;;;;;5086886;28;20031;-81
2021/01/26 07:06:47;;;;;;;10.98;5.28;;;;;;;;;;5070073;28;20084;-80
2021/01/26 07:09:22;;;;;;;11.90;4.82;;;;;;;;;;5071799;28;20013;-81
2021/01/26 07:11:48;;;;;;;8.68;4.68;;;;;;;;;;5071703;28;20434;-80
2021/01/26 07:14:34;;;;;;;8.82;4.45;;;;;;;;;;5070977;28;20035;-81
2021/01/26 07:17:04;;;;;;;8.15;4.78;;;;;;;;;;5070463;28;20056;-80
2021/01/26 07:19:40;;;;;;;8.13;4.70;;;;;;;;;;5070756;28;20433;-81
2021/01/26 07:22:13;;;;;;;10.40;4.60;;;;;;;;;;5083765;28;20513;-81
2021/01/26 07:25:02;;;;;;;7.35;4.43;;;;;;;;;;5090671;28;20055;-82
2021/01/26 07:27:34;;;;;;;8.10;4.35;;;;;;;;;;5076533;28;20028;-81
2021/01/26 07:30:04;;;;;;;8.10;4.38;;;;;;;;;;5088097;28;20028;-80
2021/01/26 07:32:34;;;;;;;12.52;4.78;;;;;;;;;;5088329;28;20131;-81
2021/01/26 07:35:15;;;;;;;8.95;4.40;;;;;;;;;;5088031;28;20074;-80
2021/01/26 07:37:51;;;;;;;8.13;4.13;;;;;;;;;;5089551;28;20032;-82
2021/01/26 07:40:21;;;;;;;8.48;4.25;;;;;;;;;;5087867;28;20027;-81
2021/01/26 07:43:02;;;;;;;12.07;6.25;;;;;;;;;;5078242;28;20016;-81
2021/01/26 07:45:32;;;;;;;10.23;4.60;;;;;;;;;;5067565;28;20021;-82
2021/01/26 07:48:01;;;;;;;8.57;4.88;;;;;;;;;;5067487;28;20044;-82
2021/01/26 07:50:31;;;;;;;11.20;4.97;;;;;;;;;;5068655;28;20056;-81
2021/01/26 07:53:00;;;;;;;9.25;4.03;;;;;;;;;;5067884;28;20055;-80
2021/01/26 07:55:25;;;;;;;8.55;4.50;;;;;;;;;;5067234;28;20033;-82
2021/01/26 07:58:01;;;;;;;9.48;4.25;;;;;;;;;;5068043;28;20039;-82
2021/01/26 08:00:29;;;;;;;10.55;4.68;;;;;;;;;;5069116;28;20077;-82
2021/01/26 08:02:56;;;;;;;8.32;4.30;;;;;;;;;;5067906;28;20044;-81
2021/01/26 08:05:38;;;;;;;7.43;4.00;;;;;;;;;;5068761;28;20395;-81
2021/01/26 08:08:05;;;;;;;8.23;4.95;;;;;;;;;;5067779;28;20078;-82
2021/01/26 08:10:31;;;;;;;9.27;4.07;;;;;;;;;;5067808;28;20044;-80
2021/01/26 08:12:57;;;;;;;8.18;4.18;;;;;;;;;;5068309;28;20054;-80
2021/01/26 08:15:35;;;;;;;8.77;4.82;;;;;;;;;;5075203;28;20088;-79
2021/01/26 08:18:22;;;;;;;9.32;4.63;;;;;;;;;;5087213;28;20122;-77
2021/01/26 08:20:48;;;;;;;;;;;;;;;;;;5088699;28;20103;-77
2021/01/26 08:23:21;;;;;;;9.50;4.38;;;;;;;;;;5088997;28;19943;-80
2021/01/26 08:25:50;;;;;;;10.15;4.90;;;;;;;;;;5073823;28;20421;-76
2021/01/26 08:28:35;;;;;;;9.38;4.65;;;;;;;;;;5067395;28;20398;-75
2021/01/26 08:31:01;;;;;;;9.07;5.05;;;;;;;;;;5067594;28;20047;-76
2021/01/26 08:33:29;;;;;;;9.90;5.28;;;;;;;;;;5067431;28;20016;-76
2021/01/26 08:36:07;;;;;;;10.65;4.70;;;;;;;;;;5067267;28;20025;-77
2021/01/26 08:38:46;;;;;;;10.82;4.78;;;;;;;;;;5068934;28;20047;-77
2021/01/26 08:41:12;;;;;;;9.10;5.18;;;;;;;;;;5067581;28;20036;-79
2021/01/26 08:43:43;;;;;;;9.32;5.40;;;;;;;;;;5067934;28;20024;-78
2021/01/26 08:46:09;;;;;;;8.50;4.85;;;;;;;;;;5079575;28;20052;-77
2021/01/26 08:48:36;;;;;;;8.18;4.95;;;;;;;;;;5085311;28;20055;-78
2021/01/26 08:51:07;;;;;;;9.57;4.88;;;;;;;;;;5067525;28;20027;-82
2021/01/26 08:53:35;;;;;;;8.98;4.55;;;;;;;;;;5069184;28;20089;-81
2021/01/26 08:56:02;;;;;;;11.13;4.88;;;;;;;;;;5067292;28;20020;-81
2021/01/26 08:58:47;;;;;;;8.23;4.65;;;;;;;;;;5067343;28;20035;-78
2021/01/26 09:01:22;;;;;;;9.00;4.95;;;;;;;;;;5068958;28;20032;-77
2021/01/26 09:04:21;;;;;;;9.35;4.18;;;;;;;;;;5068307;28;20123;-81
2021/01/26 09:06:48;;;;;;;9.40;4.40;;;;;;;;;;5068799;28;20021;-80
2021/01/26 09:09:20;;;;;;;10.18;5.18;;;;;;;;;;5067231;28;20642;-80
2021/01/26 09:11:47;;;;;;;7.63;4.82;;;;;;;;;;5068464;28;20055;-81
2021/01/26 09:14:19;;;;;;;12.00;4.65;;;;;;;;;;5067997;28;20107;-78
2021/01/26 09:16:46;;;;;;;9.02;2.70;;;;;;;;;;5066918;28;20436;-81
2021/01/26 09:19:16;;;;;;;6.25;2.28;;;;;;;;;;5067604;28;20032;-81
2021/01/26 09:21:42;;;;;;;6.93;2.20;;;;;;;;;;5079982;28;20027;-80
2021/01/26 09:24:09;;;;;;;6.70;2.40;;;;;;;;;;5086568;28;20031;-80
2021/01/26 09:26:35;;;;;;;5.93;2.20;;;;;;;;;;5086647;28;20047;-81
2021/01/26 09:29:01;;;;;;;5.53;2.60;;;;;;;;;;5088730;28;20474;-79
2021/01/26 09:31:29;;;;;;;6.65;2.45;;;;;;;;;;5083590;28;20059;-81
2021/01/26 09:33:55;;;;;;;;;;;;;;;;;;5088054;28;20364;-81
2021/01/26 09:36:21;;;;;;;8.23;2.88;;;;;;;;;;5087198;28;19911;-80
2021/01/26 09:38:48;;;;;;;10.38;2.95;;;;;;;;;;5088588;28;20024;-80
2021/01/26 09:41:14;;;;;;;;;;;;;;;;;;5087679;28;20077;-80
2021/01/26 09:43:43;;;;;;;6.13;2.53;;;;;;;;;;5086352;28;19908;-80
2021/01/26 09:46:12;;;;;;;8.38;2.63;;;;;;;;;;5086510;28;20085;-80
2021/01/26 09:48:40;;;;;;;7.78;2.58;;;;;;;;;;5087508;28;20104;-80
2021/01/26 09:51:14;;;;;;;7.70;3.20;;;;;;;;;;5086812;28;20024;-82
2021/01/26 09:53:41;;;;;;;17.52;8.52;;;;;;;;;;5089634;28;20150;-81
2021/01/26 09:56:08;;;;;;;27.50;12.48;;;;;;;;;;5090493;28;20035;-80
2021/01/26 09:58:34;;;;;;;11.60;4.37;;;;;;;;;;5090128;28;20028;-80
2021/01/26 10:01:00;;;;;;;9.30;3.33;;;;;;;;;;5077080;28;20067;-80
2021/01/26 10:03:27;;;;;;;11.40;5.00;;;;;;;;;;5070681;28;20028;-79
2021/01/26 10:05:54;;;;;;;9.30;4.30;;;;;;;;;;5070284;28;20033;-80
2021/01/26 10:08:25;;;;;;;9.52;2.97;;;;;;;;;;5070747;28;20127;-81
2021/01/26 10:10:51;;;;;;;11.98;5.35;;;;;;;;;;5072609;28;20042;-79
2021/01/26 10:13:20;;;;;;;14.98;5.25;;;;;;;;;;5070626;28;20027;-79
2021/01/26 10:15:46;;;;;;;14.15;6.47;;;;;;;;;;5067180;28;20124;-79
2021/01/26 10:18:20;;;;;;;6.60;2.60;;;;;;;;;;5084048;28;20111;-80
2021/01/26 10:20:47;;;;;;;18.90;8.60;;;;;;;;;;5088869;28;20020;-79
2021/01/26 10:23:22;;;;;;;17.53;5.77;;;;;;;;;;5088971;28;20478;-79
2021/01/26 10:25:49;;;;;;;13.75;5.35;;;;;;;;;;5088895;28;20031;-77
2021/01/26 10:28:19;;;;;;;7.38;2.80;;;;;;;;;;5089215;28;20081;-78
2021/01/26 10:30:47;;;;;;;8.55;3.17;;;;;;;;;;5089063;28;20020;-80
2021/01/26 10:33:32;;;;;;;7.90;2.53;;;;;;;;;;5090775;28;20035;-78
2021/01/26 10:36:37;;;;;;;5.93;2.40;;;;;;;;;;5103159;28;20118;-77
2021/01/26 10:39:21;;;;;;;6.57;2.22;;;;;;;;;;5047593;28;20041;-75
2021/01/26 10:41:47;;;;;;;6.70;2.88;;;;;;;;;;5047037;28;20036;-79
2021/01/26 10:44:15;;;;;;;9.48;2.45;;;;;;;;;;5083882;28;20084;-76
2021/01/26 10:46:41;;;;;;;6.85;2.50;;;;;;;;;;5108802;28;20026;-77
2021/01/26 10:49:13;;;;;;;6.43;2.30;;;;;;;;;;5108985;28;20042;-81
2021/01/26 10:51:39;;;;;;;4.25;1.80;;;;;;;;;;5110163;28;20065;-77
2021/01/26 10:54:06;;;;;;;8.48;2.95;;;;;;;;;;5109729;28;20126;-80
2021/01/26 10:56:33;;;;;;;5.80;2.33;;;;;;;;;;5108179;28;20036;-80
2021/01/26 10:58:59;;;;;;;12.15;3.10;;;;;;;;;;5109856;28;20023;-79
2021/01/26 11:01:25;;;;;;;9.15;2.60;;;;;;;;;;5111581;28;20024;-77
2021/01/26 11:03:51;;;;;;;6.45;2.33;;;;;;;;;;5112664;28;20079;-79
2021/01/26 11:06:19;;;;;;;4.68;2.10;;;;;;;;;;5112147;28;20519;-80
2021/01/26 11:08:47;;;;;;;6.13;2.03;;;;;;;;;;5111850;28;20032;-82
2021/01/26 11:11:14;;;;;;;14.50;5.72;;;;;;;;;;5113303;28;20012;-82
2021/01/26 11:13:40;;;;;;;7.88;2.58;;;;;;;;;;5111171;28;20105;-80
2021/01/26 11:16:06;;;;;;;11.00;2.40;;;;;;;;;;5068324;28;20121;-80
2021/01/26 11:18:32;;;;;;;12.25;4.90;;;;;;;;;;5068747;28;20158;-81
2021/01/26 11:20:59;;;;;;;6.70;1.90;;;;;;;;;;5068201;28;20036;-80
2021/01/26 11:23:25;;;;;;;5.77;2.60;;;;;;;;;;5068011;28;20027;-80
2021/01/26 11:25:52;;;;;;;11.15;4.60;;;;;;;;;;5068746;28;20032;-76
2021/01/26 11:28:18;;;;;;;4.80;2.53;;;;;;;;;;5068658;28;20027;-81
2021/01/26 11:30:44;;;;;;;7.30;2.25;;;;;;;;;;5073397;28;20492;-79
2021/01/26 11:33:10;;;;;;;6.90;1.98;;;;;;;;;;5089783;28;20158;-80
2021/01/26 11:35:36;;;;;;;7.00;2.70;;;;;;;;;;5088380;28;20054;-79
2021/01/26 11:38:02;;;;;;;6.50;2.78;;;;;;;;;;5088456;28;20028;-80
2021/01/26 11:40:29;;;;;;;7.72;1.90;;;;;;;;;;5087905;28;20039;-81
2021/01/26 11:42:55;;;;;;;9.73;2.28;;;;;;;;;;5088233;28;20117;-80
2021/01/26 11:45:23;;;;;;;3.70;1.92;;;;;;;;;;5087541;28;20032;-83
2021/01/26 11:47:49;;;;;;;5.07;1.83;;;;;;;;;;5088033;28;20064;-81
2021/01/26 11:50:16;;;;;;;6.25;1.70;;;;;;;;;;5087868;28;20024;-81
2021/01/26 11:52:42;;;;;;;3.37;1.60;;;;;;;;;;5089466;28;20023;-79
2021/01/26 11:55:10;;;;;;;7.43;1.90;;;;;;;;;;5087399;28;20258;-78
2021/01/26 11:57:36;;;;;;;;;;;;;;;;;;5088477;28;20063;-80
2021/01/26 12:00:03;;;;;;;8.32;2.20;;;;;;;;;;5087579;28;19951;-80
2021/01/26 12:02:29;;;;;;;4.95;1.88;;;;;;;;;;5087340;28;20460;-81
2021/01/26 12:04:55;;;;;;;6.70;2.08;;;;;;;;;;5086462;28;20374;-78
2021/01/26 12:07:21;;;;;;;7.40;2.33;;;;;;;;;;5088765;28;20439;-79
2021/01/26 12:09:47;;;;;;;6.38;2.45;;;;;;;;;;5087325;28;20027;-80
2021/01/26 12:12:14;;;;;;;5.85;2.10;;;;;;;;;;5075443;28;20051;-80
2021/01/26 12:14:41;;;;;;;6.35;2.25;;;;;;;;;;5066268;28;20081;-78
2021/01/26 12:17:07;;;;;;;7.50;2.53;;;;;;;;;;5067657;28;20028;-80
2021/01/26 12:19:33;;;;;;;6.32;2.50;;;;;;;;;;5067617;28;20031;-79
2021/01/26 12:22:00;;;;;;;6.55;2.20;;;;;;;;;;5068733;28;20387;-79
2021/01/26 12:24:26;;;;;;;7.15;1.55;;;;;;;;;;5067315;28;20033;-80
2021/01/26 12:26:54;;;;;;;5.00;2.22;;;;;;;;;;5067847;28;20028;-80
2021/01/26 12:29:20;;;;;;;6.97;2.50;;;;;;;;;;5068190;28;20027;-80
2021/01/26 12:31:46;;;;;;;7.40;2.53;;;;;;;;;;5067371;28;20018;-80
2021/01/26 12:34:12;;;;;;;6.80;2.88;;;;;;;;;;5067075;28;20471;-80
2021/01/26 12:36:38;;;;;;;5.82;2.17;;;;;;;;;;5072371;28;20020;-81
2021/01/26 12:39:05;;;;;;;6.25;2.40;;;;;;;;;;5087468;28;20020;-81
2021/01/26 12:41:31;;;;;;;7.45;2.95;;;;;;;;;;5088970;28;20101;-81
2021/01/26 12:43:58;;;;;;;7.80;2.90;;;;;;;;;;5088984;28;20058;-81
2021/01/26 12:46:25;;;;;;;6.53;2.38;;;;;;;;;;5087234;28;20155;-82
2021/01/26 12:48:51;;;;;;;5.32;2.08;;;;;;;;;;5087311;28;20039;-81
2021/01/26 12:51:17;;;;;;;7.93;2.33;;;;;;;;;;5087398;28;20108;-81
2021/01/26 12:53:43;;;;;;;9.05;2.60;;;;;;;;;;5088947;28;20554;-82
2021/01/26 12:56:08;;;;;;;8.70;2.67;;;;;;;;;;5087294;28;20028;-81
2021/01/26 12:58:34;;;;;;;8.07;2.70;;;;;;;;;;5087367;28;20390;-81
2021/01/26 13:01:00;;;;;;;5.75;2.40;;;;;;;;;;5072147;28;20036;-83
2021/01/26 13:03:26;;;;;;;5.43;2.22;;;;;;;;;;5066148;28;20796;-80
2021/01/26 13:05:52;;;;;;;5.57;2.40;;;;;;;;;;5066284;28;20032;-81
2021/01/26 13:08:18;;;;;;;5.72;2.10;;;;;;;;;;5066953;28;20021;-82
2021/01/26 13:10:44;;;;;;;5.22;2.38;;;;;;;;;;5066983;28;20056;-81
2021/01/26 13:13:11;;;;;;;8.00;2.10;;;;;;;;;;5066837;28;20124;-81
2021/01/26 13:15:37;;;;;;;8.45;2.47;;;;;;;;;;5067663;28;20491;-81
2021/01/26 13:18:03;;;;;;;13.15;3.47;;;;;;;;;;5066996;28;20405;-82
2021/01/26 13:20:29;;;;;;;6.35;1.90;;;;;;;;;;5066697;28;20043;-81
2021/01/26 13:22:55;;;;;;;7.82;2.25;;;;;;;;;;5068099;28;20024;-82
2021/01/26 13:25:24;;;;;;;5.93;2.03;;;;;;;;;;5066543;28;20031;-82
2021/01/26 13:27:50;;;;;;;5.43;2.20;;;;;;;;;;5071473;28;20021;-82
2021/01/26 13:30:17;;;;;;;6.57;2.40;;;;;;;;;;5071817;28;20407;-81
2021/01/26 13:32:43;;;;;;;9.57;5.30;;;;;;;;;;5071423;28;20048;-78
2021/01/26 13:35:10;;;;;;;11.45;3.00;;;;;;;;;;5071048;28;20510;-79
2021/01/26 13:37:37;;;;;;;5.10;2.00;;;;;;;;;;5070926;28;20032;-82
2021/01/26 13:40:04;;;;;;;8.00;2.25;;;;;;;;;;5069991;28;20105;-81
2021/01/26 13:42:30;;;;;;;7.57;2.60;;;;;;;;;;5069946;28;20055;-82
2021/01/26 13:44:56;;;;;;;11.60;2.22;;;;;;;;;;5069041;28;20726;-81
2021/01/26 13:47:22;;;;;;;9.65;2.10;;;;;;;;;;5069877;28;20025;-80
2021/01/26 13:49:48;;;;;;;6.43;2.05;;;;;;;;;;5071050;28;20108;-82
2021/01/26 13:52:15;;;;;;;4.40;2.05;;;;;;;;;;5069402;28;20025;-79
2021/01/26 13:54:41;;;;;;;6.22;1.90;;;;;;;;;;5068684;28;20029;-81
2021/01/26 13:57:07;;;;;;;7.60;2.88;;;;;;;;;;5069494;28;20051;-81
2021/01/26 13:59:33;;;;;;;10.13;3.13;;;;;;;;;;5069498;28;20052;-80
2021/01/26 14:01:59;;;;;;;10.00;3.60;;;;;;;;;;5069099;28;20031;-82
2021/01/26 14:04:25;;;;;;;9.07;3.08;;;;;;;;;;5068453;28;20044;-80
2021/01/26 14:06:51;;;;;;;6.15;2.60;;;;;;;;;;5070061;28;20063;-80
2021/01/26 14:09:18;;;;;;;7.82;3.30;;;;;;;;;;5066837;28;20020;-80
2021/01/26 14:11:44;;;;;;;5.07;2.35;;;;;;;;;;5069171;28;20025;-78
2021/01/26 14:14:11;;;;;;;16.02;10.43;;;;;;;;;;5070713;28;20055;-79
2021/01/26 14:16:38;;;;;;;12.98;6.10;;;;;;;;;;5070846;28;20414;-81
2021/01/26 14:19:04;;;;;;;5.30;2.72;;;;;;;;;;5090608;28;20023;-81
2021/01/26 14:21:30;;;;;;;7.70;3.08;;;;;;;;;;5088633;28;20036;-80
2021/01/26 14:23:57;;;;;;;6.60;2.45;;;;;;;;;;5090091;28;20046;-79
2021/01/26 14:26:23;;;;;;;6.30;2.20;;;;;;;;;;5106855;28;20024;-82
2021/01/26 14:28:49;;;;;;;5.88;2.28;;;;;;;;;;5108654;28;20030;-78
2021/01/26 14:31:15;;;;;;;5.63;2.38;;;;;;;;;;5108258;28;20028;-79
2021/01/26 14:33:41;;;;;;;6.97;3.05;;;;;;;;;;5110663;28;20024;-78
2021/01/26 14:36:08;;;;;;;2.72;1.50;;;;;;;;;;5102842;28;20035;-81
2021/01/26 14:38:34;;;;;;;33.67;12.75;;;;;;;;;;5089023;28;20024;-79
2021/01/26 14:41:00;;;;;;;10.20;3.40;;;;;;;;;;5089881;28;20028;-82
2021/01/26 14:43:26;;;;;;;7.10;2.38;;;;;;;;;;5089160;28;20020;-83
2021/01/26 14:45:53;;;;;;;4.18;2.03;;;;;;;;;;5089582;28;20081;-81
2021/01/26 14:48:19;;;;;;;3.75;2.00;;;;;;;;;;5090962;28;20027;-80